OI97 weather

St. Ann's Heliport
Westerville, Ohio, United States

Public forecast

Using degrees Fahrenheit for public forecast. Weather courtesy of forecast.io.

METAR (pilot weather report)

Closest report is The Ohio State University Airport - Don Scott Field, 6.3 nm (11.6 km) WSW. Retrieved 2019/05/21 16:53 UTC (18 minutes ago):

KOSU 211653Z 10010KT 10SM CLR 14/03 A3014 RMK AO2 SLP207 T01440033

TAF (pilot weather forecast)

Closest forecast is John Glenn Columbus International Airport, 7.3 nm (13.6 km) SSE. Retrieved 2019/05/21 12:30 UTC (5 hours ago):

TAF KCMH 211129Z 2112/2212 05006KT P6SM FEW030 BKN150 FM211500 07008KT P6SM BKN100 FM220300 09009KT P6SM FEW100 FM221100 11009KT P6SM SCT070 BKN250